Time;durP1;ratioP1;P1;durP2;ratioP2;P2;SDS_P1;SDS_P2;PMS_P1;PMS_P2;Temp;Humidity;BMP_temperature;BMP_pressure;BME280_temperature;BME280_humidity;BME280_pressure;Samples;Min_cycle;Max_cycle;Signal;HPM_P1;HPM_P2
2022/01/16 00:01:15;;;;;;;2.55;1.60;;;;;;;2.33;62.98;99819.60;1628734;87;20995;-78
2022/01/16 00:06:20;;;;;;;1.57;1.12;;;;;;;2.31;62.81;99818.45;1637279;87;21095;-76
2022/01/16 00:08:46;;;;;;;1.77;1.20;;;;;;;2.30;62.84;99826.13;1623217;87;21100;-70
2022/01/16 00:11:13;;;;;;;4.95;1.57;;;;;;;2.31;63.00;99817.13;1614430;88;21496;-73
2022/01/16 00:13:39;;;;;;;3.77;1.52;;;;;;;2.30;63.00;99850.02;1626520;86;21068;-75
2022/01/16 00:16:06;;;;;;;1.95;1.30;;;;;;;2.29;62.76;99843.06;1625850;87;21632;-74
2022/01/16 00:18:48;;;;;;;2.40;1.40;;;;;;;2.28;62.80;99832.13;1628766;86;21585;-77
2022/01/16 00:21:01;;;;;;;2.42;1.50;;;;;;;2.28;62.81;99821.51;1640629;86;21129;-76
2022/01/16 00:23:29;;;;;;;1.87;1.55;;;;;;;2.29;62.52;99822.34;1641992;87;21136;-75
2022/01/16 00:25:56;;;;;;;1.67;1.25;;;;;;;2.29;62.57;99835.60;1613628;87;21055;-76
2022/01/16 00:28:23;;;;;;;2.47;1.22;;;;;;;2.27;62.58;99841.09;1639051;86;21100;-71
2022/01/16 00:30:50;;;;;;;2.00;1.07;;;;;;;2.25;62.42;99835.17;1641676;87;21647;-73
2022/01/16 00:33:18;;;;;;;2.00;1.35;;;;;;;2.25;62.63;99835.17;1627774;87;21103;-73
2022/01/16 00:35:44;;;;;;;2.47;1.35;;;;;;;2.24;62.80;99828.22;1640045;86;21103;-71
2022/01/16 00:38:10;;;;;;;3.27;1.52;;;;;;;2.25;62.71;99819.76;1641932;86;21119;-71
2022/01/16 00:40:37;;;;;;;1.62;1.07;;;;;;;2.24;62.48;99822.09;1642289;87;21085;-70
2022/01/16 00:43:03;;;;;;;3.40;1.52;;;;;;;2.24;62.51;99833.53;1644340;86;21036;-71
2022/01/16 00:45:33;;;;;;;1.30;1.20;;;;;;;2.24;62.60;99842.81;1666375;85;21095;-74
2022/01/16 00:47:58;;;;;;;4.67;1.37;;;;;;;2.22;62.66;99854.11;1623061;88;21125;-71
2022/01/16 00:50:24;;;;;;;2.22;1.10;;;;;;;2.22;62.57;99842.17;1595169;86;20973;-77
2022/01/16 00:52:52;;;;;;;2.35;1.87;;;;;;;2.22;62.44;99847.98;1621612;88;21091;-78
2022/01/16 00:55:18;;;;;;;1.52;1.25;;;;;;;2.24;62.63;99838.01;1610331;87;21051;-76
2022/01/16 00:57:44;;;;;;;4.35;1.77;;;;;;;2.24;62.66;99837.51;1623327;87;21088;-78
2022/01/16 01:00:12;;;;;;;4.70;1.87;;;;;;;2.25;62.76;99827.22;1623333;88;21964;-74
2022/01/16 01:02:39;;;;;;;2.98;1.82;;;;;;;2.25;62.72;99802.52;1550140;89;21076;-74
2022/01/16 01:05:07;;;;;;;3.67;1.62;;;;;;;2.24;62.76;99816.28;1610083;87;21560;-74
2022/01/16 01:07:39;;;;;;;3.85;3.02;;;;;;;2.24;62.83;99827.40;1621416;87;21045;-73
2022/01/16 01:10:08;;;;;;;1.70;1.25;;;;;;;2.20;62.80;99844.22;1623259;87;21072;-75
2022/01/16 01:12:56;;;;;;;1.72;1.40;;;;;;;2.21;62.88;99847.69;1605976;89;21846;-75
2022/01/16 01:15:30;;;;;;;2.85;1.47;;;;;;;2.19;62.98;99839.92;1617079;88;21643;-77
2022/01/16 01:17:56;;;;;;;5.22;1.50;;;;;;;2.18;62.98;99864.30;1608471;88;21007;-75
2022/01/16 01:20:23;;;;;;;2.17;1.87;;;;;;;2.17;63.08;99863.15;1623392;87;21079;-75
2022/01/16 01:22:51;;;;;;;2.42;1.60;;;;;;;2.17;62.92;99856.02;1623260;87;21380;-75
2022/01/16 01:25:19;;;;;;;4.42;1.40;;;;;;;2.18;62.89;99838.27;1632289;87;21118;-75
2022/01/16 01:27:46;;;;;;;1.55;1.45;;;;;;;2.15;62.34;99863.87;1622288;87;21015;-74
2022/01/16 01:30:15;;;;;;;2.33;1.45;;;;;;;2.15;62.41;99879.28;1622970;88;21084;-76
2022/01/16 01:32:46;;;;;;;1.42;1.32;;;;;;;2.17;62.38;99875.91;1623293;88;21358;-75
2022/01/16 01:35:15;;;;;;;2.83;1.05;;;;;;;2.18;62.28;99891.33;1623545;88;21727;-75
2022/01/16 01:37:44;;;;;;;3.02;1.60;;;;;;;2.20;62.42;99873.41;1623279;88;21159;-76
2022/01/16 01:40:14;;;;;;;1.75;1.10;;;;;;;2.19;62.47;99900.44;1604183;87;20992;-73
2022/01/16 01:42:45;;;;;;;3.15;1.30;;;;;;;2.21;62.60;99918.00;1596332;89;21032;-72
2022/01/16 01:53:25;;;;;;;1.45;1.30;;;;;;;2.16;63.03;99744.27;1568965;90;21029;-77
2022/01/16 01:55:51;;;;;;;2.45;1.47;;;;;;;2.15;63.10;99730.72;1603908;87;21032;-76
2022/01/16 01:58:19;;;;;;;3.00;2.35;;;;;;;2.15;63.22;99760.40;1606565;89;21062;-73
2022/01/16 02:00:45;;;;;;;1.75;1.37;;;;;;;2.13;63.14;99767.72;1588355;89;21030;-75
2022/01/16 02:03:26;;;;;;;1.87;1.60;;;;;;;2.08;63.15;99811.25;1579803;90;21144;-75
2022/01/16 02:05:45;;;;;;;3.22;1.55;;;;;;;2.07;63.31;99836.13;1605265;89;20924;-75
2022/01/16 02:08:12;;;;;;;1.45;1.02;;;;;;;2.04;63.26;99829.39;1606403;89;21006;-75
2022/01/16 02:10:38;;;;;;;2.55;1.50;;;;;;;2.03;63.28;99824.27;1595653;89;21053;-76
2022/01/16 02:13:08;;;;;;;1.95;1.27;;;;;;;2.05;63.40;99832.86;1600990;89;21054;-73
2022/01/16 02:27:58;;;;;;;2.05;1.40;;;;;;;2.04;63.06;99855.09;1606581;89;21986;-72
2022/01/16 02:32:13;;;;;;;2.10;1.62;;;;;;;1.99;61.73;99850.86;1599464;89;21053;-74
2022/01/16 02:34:39;;;;;;;3.55;1.62;;;;;;;2.00;61.47;99861.28;1587408;89;20963;-75
2022/01/16 02:37:11;;;;;;;1.25;1.15;;;;;;;2.01;61.26;99843.04;1606661;89;20990;-72
2022/01/16 02:39:41;;;;;;;3.00;1.37;;;;;;;2.04;61.32;99872.33;1606612;89;21030;-75
2022/01/16 02:42:10;;;;;;;3.10;1.40;;;;;;;2.05;61.24;99861.53;1559566;89;21050;-74
2022/01/16 02:45:00;;;;;;;1.52;1.32;;;;;;;2.07;61.18;99879.39;1565374;90;21038;-75
2022/01/16 02:47:19;;;;;;;2.40;1.72;;;;;;;2.07;61.15;99874.59;1559877;90;21078;-74
2022/01/16 02:49:51;;;;;;;1.32;1.22;;;;;;;2.07;61.33;99900.61;1581275;90;21345;-72
2022/01/16 02:52:19;;;;;;;3.27;1.80;;;;;;;2.07;61.53;99897.96;1573679;90;21013;-73
2022/01/16 02:54:49;;;;;;;1.77;1.47;;;;;;;2.08;61.73;99889.50;1586177;89;21229;-78
2022/01/16 02:57:20;;;;;;;2.62;1.80;;;;;;;2.09;61.99;99887.17;1574543;89;21101;-78
2022/01/16 02:59:50;;;;;;;6.22;3.58;;;;;;;2.07;62.22;99886.02;1569654;89;21045;-74
2022/01/16 03:02:18;;;;;;;2.90;1.57;;;;;;;2.07;62.50;99890.50;1597871;89;21023;-74
2022/01/16 03:04:46;;;;;;;2.95;2.00;;;;;;;2.06;62.74;99888.89;1600177;89;21051;-73
2022/01/16 03:07:12;;;;;;;2.55;1.60;;;;;;;2.05;62.91;99888.56;1581169;89;20995;-73
2022/01/16 03:10:05;;;;;;;2.40;1.45;;;;;;;2.04;63.00;99903.66;1597742;89;20956;-71
2022/01/16 03:12:23;;;;;;;4.42;1.85;;;;;;;2.00;63.13;99907.70;1581494;89;28207;-75
2022/01/16 03:14:53;;;;;;;2.30;2.10;;;;;;;1.99;63.28;99907.88;1593973;89;21094;-74
2022/01/16 03:17:35;;;;;;;2.72;1.55;;;;;;;1.96;63.36;99925.01;1556286;91;21047;-74
2022/01/16 03:22:36;;;;;;;2.67;1.50;;;;;;;1.96;63.04;99927.66;1571769;89;20999;-79
2022/01/16 03:25:03;;;;;;;1.57;1.45;;;;;;;1.97;63.05;99931.11;1593454;89;21093;-80
2022/01/16 03:27:29;;;;;;;2.90;1.62;;;;;;;1.97;62.95;99931.11;1573548;89;21098;-78
2022/01/16 03:29:58;;;;;;;4.17;1.67;;;;;;;1.96;63.09;99930.31;1571044;91;21066;-84
2022/01/16 03:32:24;;;;;;;1.60;1.10;;;;;;;1.93;63.11;99920.06;1571214;91;21596;-85
2022/01/16 03:34:50;;;;;;;2.40;1.50;;;;;;;1.94;63.25;99926.19;1593661;89;21075;-86
2022/01/16 03:37:17;;;;;;;3.85;1.30;;;;;;;1.94;63.42;99920.89;1579196;89;22247;-89
2022/01/16 03:39:44;;;;;;;3.25;1.10;;;;;;;1.94;63.60;99916.91;1574670;89;21122;-90
2022/01/16 03:42:10;;;;;;;3.45;1.45;;;;;;;1.93;63.76;99931.17;1600916;89;21177;-92
2022/01/16 03:44:37;;;;;;;2.05;1.40;;;;;;;1.91;63.85;99934.53;1597475;89;21153;-89
2022/01/16 03:47:04;;;;;;;1.92;1.57;;;;;;;1.91;64.02;99934.53;1593505;88;21047;-86
2022/01/16 03:49:31;;;;;;;6.50;2.12;;;;;;;1.90;64.04;99946.97;1619798;88;21072;-85
2022/01/16 03:51:59;;;;;;;2.60;1.32;;;;;;;1.89;64.02;99936.04;1617824;88;21060;-87
2022/01/16 03:54:28;;;;;;;5.53;2.12;;;;;;;1.88;63.95;99938.87;1613089;88;21055;-85
2022/01/16 03:56:55;;;;;;;2.65;2.35;;;;;;;1.87;63.85;99937.25;1612164;88;21543;-86
2022/01/16 03:59:21;;;;;;;6.60;1.92;;;;;;;1.83;63.48;99946.06;1561444;89;21034;-83
2022/01/16 04:01:48;;;;;;;2.80;1.80;;;;;;;1.81;63.53;99934.02;1571556;91;21114;-85
2022/01/16 04:04:14;;;;;;;3.10;1.20;;;;;;;1.80;63.35;99955.73;1579610;89;20990;-83
2022/01/16 04:06:40;;;;;;;4.47;1.80;;;;;;;1.80;63.19;99949.09;1597999;89;20987;-87
2022/01/16 04:09:07;;;;;;;2.58;1.75;;;;;;;1.78;63.08;99957.73;1559852;89;21048;-85
2022/01/16 04:11:35;;;;;;;1.40;1.30;;;;;;;1.77;62.80;99930.09;1597810;89;20952;-84
2022/01/16 04:14:15;;;;;;;1.57;1.37;;;;;;;1.79;62.85;99925.41;1597894;89;21106;-87
2022/01/16 04:16:34;;;;;;;3.40;1.47;;;;;;;1.77;62.61;99932.25;1580227;89;21548;-84
2022/01/16 04:19:00;;;;;;;2.42;1.50;;;;;;;1.81;62.43;99927.38;1580203;89;21154;-86
2022/01/16 04:21:27;;;;;;;2.25;2.15;;;;;;;1.78;61.60;99957.73;1598666;89;21022;-87
2022/01/16 04:23:53;;;;;;;2.33;1.52;;;;;;;1.77;61.66;99940.20;1599454;89;21031;-85
2022/01/16 04:26:20;;;;;;;2.10;1.57;;;;;;;1.77;61.58;99947.33;1583031;89;21059;-86
2022/01/16 04:28:48;;;;;;;1.70;1.60;;;;;;;1.78;61.78;99937.84;1598117;88;21012;-87
2022/01/16 04:31:15;;;;;;;4.62;1.50;;;;;;;1.80;61.73;99933.69;1583177;89;21030;-87
2022/01/16 04:33:42;;;;;;;1.55;1.20;;;;;;;1.79;61.68;99949.27;1597963;89;22049;-87
2022/01/16 04:36:09;;;;;;;2.17;1.77;;;;;;;1.79;61.59;99944.80;1597921;89;21027;-89
2022/01/16 04:38:38;;;;;;;3.40;1.60;;;;;;;1.80;61.79;99947.77;1598061;89;20987;-84
2022/01/16 04:43:48;;;;;;;2.30;1.30;;;;;;;1.77;61.81;99951.31;1551393;89;21559;-85
2022/01/16 04:46:21;;;;;;;3.67;1.60;;;;;;;1.75;61.91;99956.29;1581620;89;21289;-81
2022/01/16 04:48:48;;;;;;;3.73;1.40;;;;;;;1.74;61.95;99944.03;1595998;89;21600;-86
2022/01/16 04:51:14;;;;;;;1.52;1.40;;;;;;;1.74;61.96;99947.19;1575028;90;21296;-80
2022/01/16 04:53:41;;;;;;;1.30;1.20;;;;;;;1.72;62.10;99944.74;1576578;89;21091;-81
2022/01/16 04:56:09;;;;;;;4.03;1.80;;;;;;;1.73;62.19;99953.48;1597916;89;21058;-82
2022/01/16 04:58:35;;;;;;;2.72;2.02;;;;;;;1.73;62.29;99954.31;1597950;89;21176;-82
2022/01/16 05:01:02;;;;;;;2.52;1.50;;;;;;;1.74;62.31;99959.94;1597368;89;21003;-89
2022/01/16 05:03:29;;;;;;;4.92;1.90;;;;;;;1.74;62.44;99963.91;1597121;89;21046;-76
2022/01/16 05:05:55;;;;;;;1.42;1.32;;;;;;;1.74;62.45;99957.29;1597893;89;21023;-80
2022/01/16 05:08:21;;;;;;;1.90;1.80;;;;;;;1.75;62.61;99966.07;1560107;89;21060;-84
2022/01/16 05:10:52;;;;;;;3.83;1.60;;;;;;;1.77;62.73;99961.41;1573413;89;21557;-86
2022/01/16 05:18:38;;;;;;;2.87;1.80;;;;;;;1.78;63.17;99968.84;1581318;89;21060;-84
2022/01/16 05:21:04;;;;;;;2.67;1.80;;;;;;;1.77;63.40;99972.02;1581838;89;21552;-84
2022/01/16 05:23:31;;;;;;;5.12;1.87;;;;;;;1.77;63.61;99974.67;1574177;89;21512;-82
2022/01/16 05:25:59;;;;;;;5.12;3.70;;;;;;;1.76;63.85;99978.33;1598231;89;21032;-82
2022/01/16 05:28:25;;;;;;;5.83;2.83;;;;;;;1.75;64.08;99970.05;1597716;89;20991;-83
2022/01/16 05:30:53;;;;;;;4.45;2.72;;;;;;;1.74;64.27;99970.55;1598285;89;21512;-83
2022/01/16 05:33:19;;;;;;;6.55;2.80;;;;;;;1.75;64.42;99981.98;1597591;89;21019;-83
2022/01/16 05:35:46;;;;;;;3.40;2.10;;;;;;;1.74;64.58;99979.83;1579538;89;21155;-85
2022/01/16 05:38:12;;;;;;;5.53;3.75;;;;;;;1.71;64.83;99980.70;1598000;89;21087;-85
2022/01/16 05:40:38;;;;;;;4.15;2.52;;;;;;;1.70;65.05;99975.08;1597317;89;21099;-82
2022/01/16 05:43:05;;;;;;;3.10;2.08;;;;;;;1.69;65.33;99981.38;1581840;89;21063;-83
2022/01/16 05:45:32;;;;;;;3.45;2.40;;;;;;;1.66;65.51;99985.24;1596076;89;21115;-83
2022/01/16 05:47:58;;;;;;;4.55;2.22;;;;;;;1.68;65.61;99992.99;1597899;89;21163;-84
2022/01/16 05:50:25;;;;;;;5.92;2.15;;;;;;;1.68;65.75;99989.02;1578130;89;21083;-85
2022/01/16 05:52:52;;;;;;;5.10;2.72;;;;;;;1.68;65.78;99981.88;1575122;90;21016;-85
2022/01/16 05:55:18;;;;;;;3.15;1.90;;;;;;;1.67;65.87;99978.94;1587618;89;21011;-85
2022/01/16 05:57:45;;;;;;;4.70;2.52;;;;;;;1.70;65.89;99987.02;1554913;91;21140;-85
2022/01/16 06:00:13;;;;;;;6.28;3.90;;;;;;;1.70;65.90;99992.31;1593862;89;21128;-80
2022/01/16 06:02:41;;;;;;;5.08;1.80;;;;;;;1.72;65.92;100001.74;1559930;89;21072;-89
2022/01/16 06:05:09;;;;;;;2.72;2.37;;;;;;;1.73;65.78;99996.73;1601024;89;20963;-89
2022/01/16 06:07:35;;;;;;;4.25;2.30;;;;;;;1.73;65.74;99996.73;1577404;89;21106;-84
2022/01/16 06:10:03;;;;;;;2.85;1.95;;;;;;;1.73;65.65;99998.56;1564570;90;21084;-86
2022/01/16 06:12:29;;;;;;;5.55;2.10;;;;;;;1.73;65.54;100018.45;1555438;91;21191;-90
2022/01/16 06:14:56;;;;;;;5.42;3.47;;;;;;;1.70;65.04;100029.43;1547835;89;21100;-90
2022/01/16 06:17:23;;;;;;;4.00;2.47;;;;;;;1.66;64.72;100011.75;1599470;89;21337;-86
2022/01/16 06:19:50;;;;;;;8.28;2.75;;;;;;;1.65;64.94;100010.10;1587839;89;21077;-87
2022/01/16 06:22:16;;;;;;;5.67;2.95;;;;;;;1.66;64.90;100020.20;1590409;89;21046;-86
2022/01/16 06:24:42;;;;;;;4.03;2.55;;;;;;;1.68;64.93;100020.83;1601327;89;21128;-85
2022/01/16 06:27:08;;;;;;;3.70;2.73;;;;;;;1.69;64.77;100025.12;1599274;89;21126;-90
2022/01/16 06:29:35;;;;;;;5.17;2.47;;;;;;;1.68;64.69;100032.26;1597095;89;21541;-91
2022/01/16 06:32:01;;;;;;;4.20;2.08;;;;;;;1.69;64.59;100037.89;1600999;89;21076;-91
2022/01/16 06:34:28;;;;;;;13.00;2.42;;;;;;;1.71;64.51;100025.28;1579778;89;21087;-87
2022/01/16 06:36:58;;;;;;;4.45;2.25;;;;;;;1.72;64.43;100029.58;1596397;89;21016;-89
2022/01/16 06:39:25;;;;;;;4.95;2.52;;;;;;;1.72;64.56;100026.11;1560648;89;21119;-86
2022/01/16 06:41:51;;;;;;;4.62;2.47;;;;;;;1.72;64.57;100036.21;1601443;89;21047;-85
2022/01/16 06:44:17;;;;;;;7.33;2.67;;;;;;;1.70;64.38;100024.95;1601444;89;21114;-88
2022/01/16 06:46:44;;;;;;;6.87;3.42;;;;;;;1.70;64.46;100039.53;1600171;89;21062;-87
2022/01/16 06:49:12;;;;;;;4.55;2.60;;;;;;;1.70;64.55;100034.23;1589933;89;21174;-87
2022/01/16 06:51:39;;;;;;;2.72;1.82;;;;;;;1.69;64.25;100047.66;1600193;88;20995;-87
2022/01/16 06:54:05;;;;;;;3.85;2.40;;;;;;;1.66;63.79;100036.94;1598157;89;21157;-85
2022/01/16 06:56:33;;;;;;;4.65;3.30;;;;;;;1.67;64.00;100044.39;1602605;89;21659;-82
2022/01/16 06:58:59;;;;;;;3.37;1.95;;;;;;;1.68;63.72;100044.69;1596563;89;21162;-86
2022/01/16 07:01:29;;;;;;;19.90;7.72;;;;;;;1.66;63.54;100047.54;1598223;89;21528;-85
2022/01/16 07:03:55;;;;;;;3.20;2.05;;;;;;;1.67;63.41;100043.89;1597954;89;21000;-83
2022/01/16 07:06:22;;;;;;;5.03;2.45;;;;;;;1.67;62.89;100039.91;1578319;89;21069;-86
2022/01/16 07:08:49;;;;;;;5.03;2.35;;;;;;;1.67;62.88;100041.23;1581392;89;21063;-87
2022/01/16 07:11:15;;;;;;;2.80;1.97;;;;;;;1.68;62.61;100043.36;1596239;89;21545;-85
2022/01/16 07:13:42;;;;;;;3.10;2.08;;;;;;;1.68;62.53;100061.92;1598127;89;21146;-87
2022/01/16 07:16:08;;;;;;;2.20;1.98;;;;;;;1.64;62.01;100065.95;1598781;89;20980;-85
2022/01/16 07:18:35;;;;;;;2.42;2.12;;;;;;;1.62;61.99;100063.50;1578324;89;20981;-83
2022/01/16 07:21:05;;;;;;;2.80;1.75;;;;;;;1.61;62.12;100053.06;1542487;90;20982;-85
2022/01/16 07:23:34;;;;;;;3.87;1.60;;;;;;;1.60;62.17;100062.84;1573699;91;21055;-83
2022/01/16 07:26:00;;;;;;;4.97;2.00;;;;;;;1.61;62.43;100058.37;1577767;90;21948;-87
2022/01/16 07:28:26;;;;;;;3.02;1.98;;;;;;;1.63;62.61;100060.34;1577954;89;21658;-85
2022/01/16 07:30:54;;;;;;;3.98;2.10;;;;;;;1.64;62.78;100062.80;1579499;89;21105;-86
2022/01/16 07:33:20;;;;;;;4.12;2.10;;;;;;;1.65;62.84;100070.25;1579794;89;21618;-87
2022/01/16 07:35:47;;;;;;;3.20;2.27;;;;;;;1.66;63.05;100078.03;1598198;89;20964;-86
2022/01/16 07:38:13;;;;;;;2.20;1.80;;;;;;;1.67;63.07;100077.03;1597527;89;21043;-85
2022/01/16 07:40:40;;;;;;;8.28;2.70;;;;;;;1.68;63.10;100073.84;1580943;89;21040;-87
2022/01/16 07:43:07;;;;;;;3.00;2.43;;;;;;;1.68;63.23;100080.48;1565419;90;21528;-91
2022/01/16 07:45:34;;;;;;;3.65;2.10;;;;;;;1.67;63.15;100070.41;1565168;89;21044;-88
2022/01/16 07:48:02;;;;;;;5.33;2.50;;;;;;;1.69;63.04;100066.22;1596980;89;21075;-85
2022/01/16 07:50:28;;;;;;;7.10;2.87;;;;;;;1.70;63.06;100071.35;1581941;89;21181;-89
2022/01/16 07:52:56;;;;;;;4.33;2.30;;;;;;;1.69;63.09;100067.05;1591341;88;21569;-90
2022/01/16 07:55:26;;;;;;;7.13;2.83;;;;;;;1.71;63.21;100066.38;1557052;91;21091;-89
2022/01/16 07:57:56;;;;;;;6.33;3.40;;;;;;;1.71;63.13;100065.05;1566970;90;21136;-90
2022/01/16 08:00:26;;;;;;;3.40;2.50;;;;;;;1.69;63.19;100061.74;1635322;86;21016;-88
2022/01/16 08:02:53;;;;;;;2.60;2.40;;;;;;;1.68;62.93;100067.22;1657243;86;21000;-85
2022/01/16 08:05:20;;;;;;;2.62;2.30;;;;;;;1.67;62.67;100079.69;1640366;86;21055;-84
2022/01/16 08:07:48;;;;;;;6.33;2.00;;;;;;;1.65;62.19;100076.38;1625893;86;21580;-83
2022/01/16 08:10:17;;;;;;;3.00;2.22;;;;;;;1.63;62.23;100074.40;1642113;86;21048;-80
2022/01/16 08:12:47;;;;;;;7.47;2.83;;;;;;;1.60;61.77;100081.41;1657908;86;21090;-87
2022/01/16 08:15:13;;;;;;;3.37;2.85;;;;;;;1.60;61.44;100089.36;1640276;86;21054;-82
2022/01/16 08:17:40;;;;;;;3.83;2.40;;;;;;;1.63;61.45;100082.88;1633425;86;21044;-79
2022/01/16 08:20:08;;;;;;;2.70;1.90;;;;;;;1.64;61.00;100083.18;1654951;86;21049;-82
2022/01/16 08:22:36;;;;;;;5.60;2.62;;;;;;;1.64;60.51;100076.05;1639646;86;21099;-83
2022/01/16 08:25:03;;;;;;;2.72;2.40;;;;;;;1.65;60.28;100087.48;1637897;86;21640;-82
2022/01/16 08:27:30;;;;;;;3.02;2.08;;;;;;;1.65;60.05;100076.38;1632402;86;21362;-80
2022/01/16 08:29:58;;;;;;;3.60;2.10;;;;;;;1.65;59.64;100092.28;1640333;86;21005;-85
2022/01/16 08:32:27;;;;;;;3.47;2.20;;;;;;;1.65;59.59;100100.23;1621060;87;20985;-81
2022/01/16 08:35:00;;;;;;;4.12;2.00;;;;;;;1.64;59.33;100077.37;1607464;86;21627;-84
2022/01/16 08:37:29;;;;;;;4.22;2.00;;;;;;;1.65;58.67;100080.85;1634540;86;21583;-86
2022/01/16 08:39:58;;;;;;;4.93;2.90;;;;;;;1.65;58.70;100086.98;1637719;87;21920;-86
2022/01/16 08:42:24;;;;;;;3.33;2.17;;;;;;;1.67;58.73;100102.72;1630661;88;20971;-78
2022/01/16 08:44:50;;;;;;;5.47;2.33;;;;;;;1.65;58.12;100102.06;1616095;88;21567;-81
2022/01/16 08:47:17;;;;;;;2.75;1.82;;;;;;;1.65;58.17;100098.08;1638885;86;21570;-79
2022/01/16 08:49:43;;;;;;;3.52;2.02;;;;;;;1.65;58.36;100101.56;1627991;85;21571;-80
2022/01/16 08:52:13;;;;;;;3.22;1.70;;;;;;;1.65;58.37;100116.64;1657360;85;21520;-77
2022/01/16 08:54:42;;;;;;;2.93;2.20;;;;;;;1.60;57.78;100102.61;1647111;86;21024;-76
2022/01/16 08:57:08;;;;;;;3.87;2.70;;;;;;;1.60;58.16;100106.59;1639523;86;21130;-78
2022/01/16 08:59:38;;;;;;;2.87;2.00;;;;;;;1.61;57.95;100100.78;1630530;86;21076;-76
2022/01/16 09:02:05;;;;;;;1.83;1.67;;;;;;;1.60;57.27;100094.66;1646017;86;21598;-81
2022/01/16 09:04:32;;;;;;;3.43;1.80;;;;;;;1.60;57.16;100069.97;1634825;86;21167;-82
2022/01/16 09:06:58;;;;;;;1.98;1.50;;;;;;;1.60;57.00;100079.25;1655635;86;21051;-80
2022/01/16 09:09:26;;;;;;;2.83;1.75;;;;;;;1.58;56.61;100064.05;1641441;86;21127;-82
2022/01/16 09:11:55;;;;;;;2.20;1.63;;;;;;;1.52;56.27;100060.80;1657655;85;20999;-81
2022/01/16 09:14:25;;;;;;;2.85;1.80;;;;;;;1.52;56.68;100048.37;1657669;86;21078;-81
2022/01/16 09:16:52;;;;;;;4.17;1.93;;;;;;;1.58;56.98;100060.08;1662917;85;21785;-82
2022/01/16 09:19:19;;;;;;;2.27;1.63;;;;;;;1.63;56.93;100051.07;1649096;83;21017;-79
2022/01/16 09:21:45;;;;;;;2.77;2.20;;;;;;;1.65;56.77;100045.06;1625983;87;21077;-81
2022/01/16 09:24:12;;;;;;;5.62;2.10;;;;;;;1.68;56.74;100057.94;1611847;88;21064;-83
2022/01/16 09:26:42;;;;;;;3.35;2.52;;;;;;;1.67;56.84;100053.17;1636332;86;21327;-83
2022/01/16 09:29:09;;;;;;;3.93;1.90;;;;;;;1.69;57.10;100052.97;1660248;85;21133;-85
2022/01/16 09:31:39;;;;;;;3.42;1.87;;;;;;;1.70;57.11;100063.39;1642472;86;21631;-85
2022/01/16 09:34:08;;;;;;;3.72;2.00;;;;;;;1.69;57.31;100054.29;1646798;86;21625;-85
2022/01/16 09:36:40;;;;;;;2.70;2.20;;;;;;;1.69;57.65;100038.38;1651615;86;21540;-84
2022/01/16 09:39:10;;;;;;;2.27;2.08;;;;;;;1.70;58.07;100047.48;1639176;86;21043;-81
2022/01/16 09:41:36;;;;;;;3.47;1.80;;;;;;;1.65;58.33;100064.95;1657712;86;21196;-82
2022/01/16 09:44:04;;;;;;;5.20;2.83;;;;;;;1.63;58.59;100047.09;1640362;86;21130;-80
2022/01/16 09:46:35;;;;;;;4.50;2.50;;;;;;;1.60;58.88;100032.36;1612745;86;21072;-82
2022/01/16 09:49:03;;;;;;;5.75;2.92;;;;;;;1.60;58.97;100027.06;1660681;84;37103;-85
2022/01/16 09:51:32;;;;;;;5.92;2.27;;;;;;;1.60;58.98;100036.84;1691748;83;21032;-87
2022/01/16 09:56:49;;;;;;;4.28;1.77;;;;;;;1.55;58.79;100040.54;1660199;85;21000;-84
2022/01/16 09:59:22;;;;;;;4.47;2.20;;;;;;;1.51;58.64;100024.19;1632796;86;21020;-83
2022/01/16 10:01:57;;;;;;;3.70;2.10;;;;;;;1.50;58.93;100033.14;1668015;85;21020;-91
2022/01/16 10:04:36;;;;;;;3.00;1.72;;;;;;;1.49;58.91;100035.46;1656617;86;21064;-87
2022/01/16 10:07:06;;;;;;;5.25;3.77;;;;;;;1.50;58.96;100021.71;1633989;86;21161;-89
2022/01/16 10:09:38;;;;;;;6.70;2.72;;;;;;;1.51;58.89;100016.73;1649668;85;21060;-91
2022/01/16 10:12:16;;;;;;;2.72;1.95;;;;;;;1.52;58.70;100039.59;1629899;88;21135;-87
2022/01/16 10:14:51;;;;;;;2.22;1.57;;;;;;;1.50;57.83;100021.21;1639545;85;21019;-85
2022/01/16 10:17:24;;;;;;;5.53;1.50;;;;;;;1.47;56.83;100044.61;1686575;83;20961;-91
2022/01/16 10:20:06;;;;;;;1.73;1.50;;;;;;;1.45;57.00;100046.61;1662023;85;22237;-87
2022/01/16 10:22:42;;;;;;;2.53;1.53;;;;;;;1.43;56.63;100021.64;1615993;88;21054;-89
2022/01/16 10:25:13;;;;;;;2.90;2.45;;;;;;;1.43;56.47;100021.64;1659689;86;20906;-85
2022/01/16 10:27:47;;;;;;;5.28;2.08;;;;;;;1.45;56.59;100016.96;1632614;85;21022;-84
2022/01/16 10:30:18;;;;;;;;;;;;;;;1.47;56.65;100018.94;1671095;85;21019;-89
2022/01/16 10:32:52;;;;;;;4.63;1.67;;;;;;;1.46;56.48;100021.27;1616804;86;20137;-84
2022/01/16 10:35:26;;;;;;;3.23;2.00;;;;;;;1.50;56.66;100012.44;1677361;85;21033;-86
2022/01/16 10:38:02;;;;;;;1.93;1.50;;;;;;;1.53;56.51;100023.52;1650400;85;21062;-86
2022/01/16 10:40:39;;;;;;;2.03;1.30;;;;;;;1.54;56.29;100034.41;1625822;88;21035;-83
2022/01/16 10:43:17;;;;;;;3.17;1.53;;;;;;;1.54;56.14;100014.53;1627945;88;20991;-83
2022/01/16 10:45:53;;;;;;;2.40;1.67;;;;;;;1.55;55.97;100029.44;1629207;88;21182;-89
2022/01/16 10:48:27;;;;;;;4.40;2.07;;;;;;;1.58;56.23;100021.11;1567103;88;21112;-83
2022/01/16 10:50:57;;;;;;;3.33;1.60;;;;;;;1.62;56.33;100022.41;1589910;89;21086;-86
2022/01/16 10:53:40;;;;;;;3.10;1.70;;;;;;;1.65;56.15;100019.38;1632508;87;21032;-83
2022/01/16 10:56:12;;;;;;;5.95;2.17;;;;;;;1.67;55.84;100011.25;1663398;85;21086;-81
2022/01/16 10:58:44;;;;;;;2.93;1.97;;;;;;;1.67;55.94;100018.70;1636460;86;21494;-82
2022/01/16 11:01:16;;;;;;;5.10;1.83;;;;;;;1.68;55.86;100013.70;1656817;86;21068;-80
2022/01/16 11:03:48;;;;;;;2.07;1.60;;;;;;;1.70;55.93;100014.84;1684484;84;20980;-79
2022/01/16 11:06:25;;;;;;;4.10;2.10;;;;;;;1.73;56.18;100015.30;1679514;84;21143;-81
2022/01/16 11:09:03;;;;;;;3.65;2.05;;;;;;;1.73;55.90;100010.49;1661011;85;21201;-80
2022/01/16 11:11:29;;;;;;;3.77;2.27;;;;;;;1.70;55.90;100014.34;1651143;86;21184;-82
2022/01/16 11:14:06;;;;;;;3.05;1.72;;;;;;;1.64;56.09;100019.55;1632808;85;20968;-91
2022/01/16 11:16:36;;;;;;;5.58;2.00;;;;;;;1.63;56.26;100000.70;1673794;83;20969;-88
2022/01/16 11:19:06;;;;;;;3.27;2.30;;;;;;;1.64;56.54;100010.28;1646522;85;21024;-85
2022/01/16 11:21:34;;;;;;;3.05;1.77;;;;;;;1.64;56.65;99999.67;1636075;84;21028;-82
2022/01/16 11:26:44;;;;;;;3.27;1.77;;;;;;;1.68;56.47;99993.81;1665274;84;21026;-87
2022/01/16 11:29:16;;;;;;;5.40;1.95;;;;;;;1.66;56.47;100001.15;1665571;84;20995;-87
2022/01/16 11:31:49;;;;;;;8.23;2.30;;;;;;;1.66;56.73;99995.84;1611480;86;21064;-88
2022/01/16 11:34:18;;;;;;;3.42;2.05;;;;;;;1.66;56.72;100005.12;1668792;84;21044;-89
2022/01/16 11:36:53;;;;;;;5.53;3.35;;;;;;;1.63;56.74;99990.89;1628388;84;20936;-86
2022/01/16 11:39:20;;;;;;;3.92;2.20;;;;;;;1.61;56.79;99997.41;1573907;86;21563;-79
2022/01/16 11:41:59;;;;;;;2.75;2.37;;;;;;;1.62;56.84;99995.08;1661750;84;21035;-84
2022/01/16 11:44:28;;;;;;;4.03;2.17;;;;;;;1.63;56.96;99997.52;1647417;84;20937;-75
2022/01/16 11:47:03;;;;;;;3.70;2.12;;;;;;;1.66;57.13;99999.83;1651725;85;21051;-83
2022/01/16 11:49:37;;;;;;;3.33;1.70;;;;;;;1.68;57.04;99997.80;1656811;85;49980;-83
2022/01/16 11:52:13;;;;;;;3.93;2.10;;;;;;;1.68;56.57;100000.44;1649305;84;21028;-79
2022/01/16 11:54:45;;;;;;;7.12;4.72;;;;;;;1.68;56.36;99987.69;1649311;85;20949;-84
2022/01/16 11:57:26;;;;;;;2.08;1.90;;;;;;;1.68;56.33;99984.53;1655606;86;21532;-80
2022/01/16 11:59:57;;;;;;;2.27;1.85;;;;;;;1.71;55.87;100000.09;1604714;87;20988;-80
2022/01/16 12:02:26;;;;;;;3.80;2.02;;;;;;;1.68;55.24;99999.62;1636906;86;21853;-80
2022/01/16 12:04:55;;;;;;;3.67;1.62;;;;;;;1.63;55.28;99999.38;1657131;85;21096;-79
2022/01/16 12:07:33;;;;;;;3.67;2.10;;;;;;;1.59;55.30;99993.59;1636952;86;21058;-84
2022/01/16 12:10:04;;;;;;;2.30;2.10;;;;;;;1.56;55.37;99999.28;1654618;85;21518;-84
2022/01/16 12:12:34;;;;;;;2.30;1.40;;;;;;;1.55;55.52;99996.80;1632562;86;21104;-89
2022/01/16 12:15:08;;;;;;;6.40;2.37;;;;;;;1.56;55.51;99985.20;1652781;86;21844;-86
2022/01/16 12:17:49;;;;;;;3.83;2.20;;;;;;;1.54;55.47;100001.28;1655287;85;20937;-75
2022/01/16 12:20:26;;;;;;;4.60;2.50;;;;;;;1.55;55.72;99979.58;1661835;84;21015;-79
2022/01/16 12:23:12;;;;;;;5.30;2.80;;;;;;;1.57;55.80;99980.23;1614367;86;21051;-82
2022/01/16 12:25:59;;;;;;;3.73;2.30;;;;;;;1.58;55.75;99981.88;1624433;86;21089;-84
2022/01/16 12:28:26;;;;;;;4.92;2.42;;;;;;;1.57;55.71;99977.08;1601891;87;21042;-82